SAS1DK EKBI-EKCH
Flight info
| Callsign | SAS1DK |
|---|---|
| Flight time | N/A |
| Altitude | 13000 |
| Route | ABINO T56 TESPI N603 ROSBI DCT TNO |
| Aircraft | AT76/M-SDFGIRY/S |
Departure
| Time | 2025-10-04 08:19 |
|---|---|
| Airport | Billund Airport (EKBI) |
Arrival
| Time | N/A |
|---|---|
| Airport | Copenhagen Kastrup Airport (EKCH) |
| Time | Latitude | Longitude | Altitude | Speed | Heading |
|---|---|---|---|---|---|
| 2025-10-04 07:55 | 55.74381 | 9.14591 | 228 ft | 0 kts | 176° |
| 2025-10-04 08:08 | 55.74388 | 9.14590 | 228 ft | 2 kts | 176° |
| 2025-10-04 08:08 | 55.74422 | 9.14586 | 228 ft | 3 kts | 176° |
| 2025-10-04 08:09 | 55.74448 | 9.14583 | 230 ft | 0 kts | 176° |
| 2025-10-04 08:12 | 55.74435 | 9.14549 | 228 ft | 9 kts | 278° |
| 2025-10-04 08:13 | 55.74355 | 9.14471 | 229 ft | 7 kts | 176° |
| 2025-10-04 08:13 | 55.74260 | 9.14414 | 227 ft | 11 kts | 258° |
| 2025-10-04 08:14 | 55.74248 | 9.14008 | 225 ft | 19 kts | 266° |
| 2025-10-04 08:14 | 55.74233 | 9.13543 | 222 ft | 18 kts | 265° |
| 2025-10-04 08:15 | 55.74194 | 9.13356 | 220 ft | 15 kts | 232° |
| 2025-10-04 08:15 | 55.74080 | 9.13257 | 220 ft | 0 kts | 182° |
| 2025-10-04 08:16 | 55.74058 | 9.13256 | 220 ft | 8 kts | 181° |
| 2025-10-04 08:16 | 55.73975 | 9.13352 | 222 ft | 3 kts | 90° |
| 2025-10-04 08:17 | 55.73994 | 9.14054 | 222 ft | 80 kts | 87° |
| 2025-10-04 08:17 | 55.74152 | 9.16934 | 614 ft | 134 kts | 89° |
| 2025-10-04 08:18 | 55.74433 | 9.20522 | 1436 ft | 169 kts | 89° |
| 2025-10-04 08:18 | 55.74767 | 9.24858 | 2091 ft | 181 kts | 87° |
| 2025-10-04 08:19 | 55.76170 | 9.28823 | 2460 ft | 209 kts | 45° |
| 2025-10-04 08:19 | 55.78663 | 9.30293 | 3072 ft | 188 kts | 339° |
| 2025-10-04 08:20 | 55.81528 | 9.30804 | 3348 ft | 215 kts | 10° |
| 2025-10-04 08:20 | 55.83720 | 9.34127 | 4260 ft | 210 kts | 32° |
| 2025-10-04 08:21 | 55.86338 | 9.34259 | 5011 ft | 187 kts | 331° |
| 2025-10-04 08:21 | 55.88878 | 9.35265 | 5603 ft | 216 kts | 49° |
| 2025-10-04 08:22 | 55.90256 | 9.39997 | 6207 ft | 216 kts | 88° |
| 2025-10-04 08:22 | 55.90197 | 9.42650 | 6535 ft | 215 kts | 101° |
| 2025-10-04 08:23 | 55.89937 | 9.48000 | 7289 ft | 219 kts | 102° |
| 2025-10-04 08:23 | 55.89623 | 9.53449 | 7941 ft | 224 kts | 103° |
| 2025-10-04 08:24 | 55.89811 | 9.61821 | 8576 ft | 237 kts | 76° |
| 2025-10-04 08:24 | 55.90818 | 9.67469 | 9018 ft | 240 kts | 75° |
| 2025-10-04 08:25 | 55.91862 | 9.73135 | 9415 ft | 243 kts | 75° |
| 2025-10-04 08:25 | 55.92956 | 9.78915 | 9754 ft | 247 kts | 75° |
| 2025-10-04 08:26 | 55.94085 | 9.84734 | 10085 ft | 250 kts | 75° |
| 2025-10-04 08:26 | 55.95262 | 9.90607 | 10588 ft | 252 kts | 75° |
| 2025-10-04 08:27 | 55.95863 | 9.93572 | 10845 ft | 254 kts | 75° |
| 2025-10-04 08:27 | 55.97174 | 9.99440 | 11186 ft | 250 kts | 91° |
| 2025-10-04 08:28 | 55.96898 | 10.08227 | 11818 ft | 217 kts | 135° |
| 2025-10-04 08:28 | 55.95404 | 10.12885 | 12243 ft | 222 kts | 132° |
| 2025-10-04 08:29 | 55.94255 | 10.18395 | 12276 ft | 252 kts | 118° |
| 2025-10-04 08:29 | 55.93490 | 10.24651 | 12256 ft | 266 kts | 114° |
| 2025-10-04 08:30 | 55.92703 | 10.31201 | 12246 ft | 272 kts | 114° |
| 2025-10-04 08:30 | 55.92276 | 10.34500 | 12246 ft | 274 kts | 115° |
| 2025-10-04 08:31 | 55.91403 | 10.41165 | 12242 ft | 276 kts | 114° |
| 2025-10-04 08:31 | 55.90526 | 10.47849 | 12241 ft | 277 kts | 114° |
| 2025-10-04 08:32 | 55.89202 | 10.57862 | 12231 ft | 278 kts | 112° |
| 2025-10-04 08:32 | 55.88388 | 10.64574 | 12230 ft | 277 kts | 112° |
| 2025-10-04 08:33 | 55.87574 | 10.71257 | 12233 ft | 275 kts | 112° |
| 2025-10-04 08:33 | 55.86774 | 10.77756 | 12232 ft | 274 kts | 112° |
| 2025-10-04 08:34 | 55.86360 | 10.81063 | 12236 ft | 273 kts | 112° |
| 2025-10-04 08:34 | 55.85529 | 10.87646 | 12234 ft | 271 kts | 112° |
| 2025-10-04 08:35 | 55.84282 | 10.97366 | 12238 ft | 268 kts | 112° |
| 2025-10-04 08:35 | 55.83442 | 11.03805 | 12239 ft | 266 kts | 112° |
| 2025-10-04 08:36 | 55.82600 | 11.10195 | 12240 ft | 264 kts | 112° |
| 2025-10-04 08:36 | 55.81754 | 11.16526 | 12242 ft | 262 kts | 112° |
| 2025-10-04 08:37 | 55.80958 | 11.22854 | 12243 ft | 262 kts | 109° |
| 2025-10-04 08:37 | 55.80491 | 11.29204 | 12287 ft | 266 kts | 97° |